createdAt,value
2019-03-24T00:00:29.186Z,66.60
2019-03-24T00:01:29.192Z,68.20
2019-03-24T00:02:29.169Z,67.40
2019-03-24T00:03:29.173Z,67.30
2019-03-24T00:04:29.209Z,66.20
2019-03-24T00:05:29.151Z,62.40
2019-03-24T00:06:29.123Z,65.10
2019-03-24T00:07:29.163Z,64.00
2019-03-24T00:08:29.109Z,56.40
2019-03-24T00:09:29.100Z,57.70
2019-03-24T00:10:29.090Z,55.10
2019-03-24T00:11:29.086Z,53.60
2019-03-24T00:12:29.072Z,51.10
2019-03-24T00:13:29.041Z,56.50
2019-03-24T00:14:29.029Z,54.90
2019-03-24T00:15:29.030Z,49.30
2019-03-24T00:16:29.032Z,46.20
2019-03-24T00:17:29.005Z,48.20
2019-03-24T00:18:29.000Z,49.50
2019-03-24T00:19:28.996Z,48.10
2019-03-24T00:20:28.970Z,42.10
2019-03-24T00:21:29.016Z,45.80
2019-03-24T00:22:28.944Z,44.90
2019-03-24T00:23:28.973Z,40.90
2019-03-24T00:24:28.922Z,42.90
2019-03-24T00:25:28.923Z,39.90
2019-03-24T00:26:28.903Z,41.30
2019-03-24T00:27:28.892Z,35.00
2019-03-24T00:28:28.887Z,41.00
2019-03-24T00:29:28.877Z,36.10
2019-03-24T00:30:28.866Z,34.50
2019-03-24T00:31:28.867Z,38.00
2019-03-24T00:32:28.833Z,33.70
2019-03-24T00:33:28.831Z,36.10
2019-03-24T00:34:28.827Z,34.60
2019-03-24T00:35:28.809Z,36.50
2019-03-24T00:36:28.795Z,37.20
2019-03-24T00:37:28.787Z,35.80
2019-03-24T00:38:28.788Z,32.00
2019-03-24T00:39:28.784Z,31.10
2019-03-24T00:40:28.762Z,34.70
2019-03-24T00:41:28.750Z,27.80
2019-03-24T00:42:28.733Z,31.90
2019-03-24T00:43:28.713Z,33.40
2019-03-24T00:44:28.713Z,25.90
2019-03-24T00:45:36.407Z,25.60
2019-03-24T00:46:29.691Z,28.00
2019-03-24T00:47:28.688Z,27.80
2019-03-24T00:48:28.745Z,31.10
2019-03-24T00:49:28.649Z,23.10
2019-03-24T00:50:28.658Z,22.00
2019-03-24T00:51:28.636Z,25.90
2019-03-24T00:52:28.654Z,29.10
2019-03-24T00:53:28.615Z,23.70
2019-03-24T00:54:28.604Z,27.10
2019-03-24T00:55:28.666Z,25.60
2019-03-24T00:56:28.635Z,24.80
2019-03-24T00:57:28.570Z,25.80
2019-03-24T00:58:28.558Z,24.70
2019-03-24T00:59:28.556Z,26.90
2019-03-24T01:00:28.536Z,24.30
2019-03-24T01:01:28.530Z,21.50
2019-03-24T01:02:28.512Z,25.80
2019-03-24T01:03:28.498Z,23.80
2019-03-24T01:04:28.493Z,25.60
2019-03-24T01:05:28.485Z,22.60
2019-03-24T01:06:28.468Z,23.30
2019-03-24T01:07:28.466Z,21.90
2019-03-24T01:08:28.466Z,22.70
2019-03-24T01:09:28.459Z,18.30
2019-03-24T01:10:28.452Z,20.10
2019-03-24T01:11:28.403Z,21.80
2019-03-24T01:12:28.415Z,22.50
2019-03-24T01:13:28.399Z,21.50
2019-03-24T01:14:28.405Z,21.70
2019-03-24T01:15:28.370Z,17.30
2019-03-24T01:16:28.355Z,23.50
2019-03-24T01:17:28.353Z,22.30
2019-03-24T01:18:28.345Z,20.90
2019-03-24T01:19:28.326Z,19.20
2019-03-24T01:20:28.318Z,19.80
2019-03-24T01:21:28.299Z,21.50
2019-03-24T01:22:28.307Z,17.10
2019-03-24T01:23:28.285Z,19.90
2019-03-24T01:24:28.279Z,20.50
2019-03-24T01:25:28.263Z,18.70
2019-03-24T01:26:28.259Z,18.80
2019-03-24T01:27:28.239Z,21.60
2019-03-24T01:28:28.219Z,19.10
2019-03-24T01:29:28.217Z,22.90
2019-03-24T01:30:28.214Z,21.10
2019-03-24T01:31:28.195Z,21.70
2019-03-24T01:32:28.177Z,20.80
2019-03-24T01:33:28.170Z,22.80
2019-03-24T01:34:28.153Z,22.00
2019-03-24T01:35:28.150Z,22.50
2019-03-24T01:36:28.155Z,24.30
2019-03-24T01:37:28.129Z,26.70
2019-03-24T01:38:28.151Z,31.70
2019-03-24T01:39:28.171Z,29.00
2019-03-24T01:40:28.141Z,32.00
2019-03-24T01:41:28.095Z,30.10
2019-03-24T01:42:28.081Z,38.20
2019-03-24T01:43:28.089Z,34.60
2019-03-24T01:44:28.098Z,37.50
2019-03-24T01:45:28.066Z,37.10
2019-03-24T01:46:28.072Z,34.30
2019-03-24T01:47:28.059Z,36.10
2019-03-24T01:48:28.007Z,36.80
2019-03-24T01:49:28.000Z,37.30
2019-03-24T01:50:27.977Z,43.40
2019-03-24T01:51:27.977Z,41.30
2019-03-24T01:52:27.960Z,37.50
2019-03-24T01:53:27.956Z,33.10
2019-03-24T01:54:27.927Z,33.90
2019-03-24T01:55:27.929Z,35.30
2019-03-24T01:56:27.915Z,33.80
2019-03-24T01:57:27.904Z,35.80
2019-03-24T01:58:27.899Z,29.90
2019-03-24T01:59:27.917Z,34.20
2019-03-24T02:00:27.900Z,31.50
2019-03-24T02:01:27.854Z,33.40
2019-03-24T02:02:27.841Z,34.30
2019-03-24T02:03:27.833Z,32.00
2019-03-24T02:04:27.833Z,31.80
2019-03-24T02:05:27.850Z,30.10
2019-03-24T02:06:27.801Z,30.10
2019-03-24T02:07:27.790Z,29.70
2019-03-24T02:08:27.781Z,29.80
2019-03-24T02:09:27.777Z,30.00
2019-03-24T02:10:27.785Z,31.60
2019-03-24T02:11:27.765Z,31.60
2019-03-24T02:12:27.730Z,28.20
2019-03-24T02:13:27.725Z,30.40
2019-03-24T02:14:27.713Z,32.30
2019-03-24T02:15:27.719Z,29.10
2019-03-24T02:16:27.695Z,29.70
2019-03-24T02:17:27.685Z,29.80
2019-03-24T02:18:27.672Z,26.40
2019-03-24T02:19:27.654Z,30.80
2019-03-24T02:20:27.645Z,26.70
2019-03-24T02:21:27.644Z,29.40
2019-03-24T02:22:27.639Z,32.10
2019-03-24T02:23:27.615Z,28.90
2019-03-24T02:24:27.610Z,27.90
2019-03-24T02:25:27.592Z,29.20
2019-03-24T02:26:27.590Z,26.20
2019-03-24T02:27:27.580Z,29.50
2019-03-24T02:28:27.574Z,27.10
2019-03-24T02:29:27.554Z,25.70
2019-03-24T02:30:27.536Z,27.50
2019-03-24T02:31:27.535Z,25.30
2019-03-24T02:32:27.539Z,23.80
2019-03-24T02:33:27.511Z,26.40
2019-03-24T02:34:27.491Z,29.10
2019-03-24T02:35:27.483Z,24.80
2019-03-24T02:36:27.483Z,27.70
2019-03-24T02:37:27.469Z,25.40
2019-03-24T02:38:27.475Z,25.80
2019-03-24T02:39:27.464Z,23.10
2019-03-24T02:40:27.422Z,22.10
2019-03-24T02:41:27.434Z,25.60
2019-03-24T02:42:27.414Z,25.90
2019-03-24T02:43:27.405Z,27.30
2019-03-24T02:44:27.404Z,25.10
2019-03-24T02:45:27.380Z,26.60
2019-03-24T02:46:27.360Z,30.90
2019-03-24T02:47:27.361Z,30.10
2019-03-24T02:48:27.344Z,29.00
2019-03-24T02:49:27.339Z,28.90
2019-03-24T02:50:27.323Z,28.30
2019-03-24T02:51:27.308Z,35.90
2019-03-24T02:52:27.298Z,35.00
2019-03-24T02:53:27.343Z,32.00
2019-03-24T02:54:27.276Z,29.70
2019-03-24T02:55:27.266Z,29.40
2019-03-24T02:56:27.339Z,31.60
2019-03-24T02:57:27.257Z,33.10
2019-03-24T02:58:27.239Z,28.90
2019-03-24T02:59:27.218Z,28.10
2019-03-24T03:00:27.219Z,30.80
2019-03-24T03:01:27.199Z,35.70
2019-03-24T03:02:27.196Z,31.20
2019-03-24T03:03:27.241Z,28.00
2019-03-24T03:04:27.170Z,25.20
2019-03-24T03:05:27.157Z,33.40
2019-03-24T03:06:27.149Z,26.90
2019-03-24T03:07:27.145Z,30.40
2019-03-24T03:08:27.144Z,27.80
2019-03-24T03:09:27.113Z,29.30
2019-03-24T03:10:27.104Z,28.50
2019-03-24T03:11:27.096Z,38.10
2019-03-24T03:12:27.079Z,33.80
2019-03-24T03:13:27.082Z,33.20
2019-03-24T03:14:27.073Z,27.40
2019-03-24T03:15:27.055Z,26.10
2019-03-24T03:16:37.785Z,23.80
2019-03-24T03:17:28.019Z,26.00
2019-03-24T03:18:27.015Z,31.30
2019-03-24T03:19:27.013Z,32.70
2019-03-24T03:20:27.022Z,31.20
2019-03-24T03:21:26.980Z,28.90
2019-03-24T03:22:26.984Z,28.10
2019-03-24T03:23:26.965Z,28.10
2019-03-24T03:24:26.963Z,25.30
2019-03-24T03:25:26.993Z,25.50
2019-03-24T03:26:26.933Z,27.00
2019-03-24T03:27:26.928Z,22.70
2019-03-24T03:28:26.908Z,30.00
2019-03-24T03:29:26.881Z,27.40
2019-03-24T03:30:26.886Z,25.90
2019-03-24T03:31:26.876Z,22.00
2019-03-24T03:32:26.858Z,24.40
2019-03-24T03:33:26.845Z,25.30
2019-03-24T03:34:26.853Z,26.70
2019-03-24T03:35:26.822Z,25.20
2019-03-24T03:36:26.820Z,26.80
2019-03-24T03:37:26.811Z,26.30
2019-03-24T03:38:26.829Z,24.80
2019-03-24T03:39:26.813Z,23.60
2019-03-24T03:40:26.795Z,25.20
2019-03-24T03:41:26.762Z,20.40
2019-03-24T03:42:26.764Z,22.80
2019-03-24T03:43:26.736Z,22.00
2019-03-24T03:44:26.737Z,23.80
2019-03-24T03:45:26.757Z,22.00
2019-03-24T03:46:26.707Z,21.70
2019-03-24T03:47:26.698Z,20.50
2019-03-24T03:48:26.697Z,19.10
2019-03-24T03:49:26.680Z,21.20
2019-03-24T03:50:26.679Z,23.10
2019-03-24T03:51:26.668Z,24.10
2019-03-24T03:52:26.644Z,20.60
2019-03-24T03:53:26.646Z,21.00
2019-03-24T03:54:26.642Z,20.30
2019-03-24T03:55:26.622Z,22.00
2019-03-24T03:56:26.594Z,19.60
2019-03-24T03:57:26.599Z,19.90
2019-03-24T03:58:26.576Z,20.50
2019-03-24T03:59:26.569Z,22.30
2019-03-24T04:00:26.568Z,22.10
2019-03-24T04:01:26.546Z,23.40
2019-03-24T04:02:26.542Z,19.40
2019-03-24T04:03:26.532Z,20.90
2019-03-24T04:04:26.524Z,19.80
2019-03-24T04:05:26.512Z,19.40
2019-03-24T04:06:26.510Z,21.30
2019-03-24T04:07:26.479Z,21.20
2019-03-24T04:08:26.505Z,23.60
2019-03-24T04:09:26.456Z,22.50
2019-03-24T04:10:26.450Z,19.30
2019-03-24T04:11:26.434Z,20.20
2019-03-24T04:12:26.433Z,19.30
2019-03-24T04:13:26.420Z,20.20
2019-03-24T04:14:26.408Z,25.30
2019-03-24T04:15:26.410Z,22.80
2019-03-24T04:16:26.377Z,20.70
2019-03-24T04:17:26.393Z,20.30
2019-03-24T04:18:26.356Z,24.00
2019-03-24T04:19:26.359Z,22.70
2019-03-24T04:20:26.345Z,21.70
2019-03-24T04:21:26.336Z,19.00
2019-03-24T04:22:26.318Z,21.60
2019-03-24T04:23:26.312Z,23.50
2019-03-24T04:24:26.300Z,19.60
2019-03-24T04:25:26.290Z,21.80
2019-03-24T04:26:26.308Z,20.00
2019-03-24T04:27:26.261Z,20.10
2019-03-24T04:28:26.261Z,19.60
2019-03-24T04:29:26.267Z,20.60
2019-03-24T04:30:26.244Z,19.50
2019-03-24T04:31:26.223Z,14.60
2019-03-24T04:32:26.213Z,16.70
2019-03-24T04:33:26.194Z,20.20
2019-03-24T04:34:26.191Z,17.90
2019-03-24T04:35:26.169Z,19.80
2019-03-24T04:36:26.168Z,24.10
2019-03-24T04:37:26.152Z,18.70
2019-03-24T04:38:26.171Z,26.00
2019-03-24T04:39:26.148Z,18.60
2019-03-24T04:40:26.137Z,20.60
2019-03-24T04:41:26.106Z,18.40
2019-03-24T04:42:26.106Z,18.00
2019-03-24T04:43:26.096Z,22.10
2019-03-24T04:44:26.079Z,14.70
2019-03-24T04:45:26.076Z,13.70
2019-03-24T04:46:26.072Z,20.90
2019-03-24T04:47:26.040Z,16.70
2019-03-24T04:48:26.034Z,18.60
2019-03-24T04:49:26.017Z,24.50
2019-03-24T04:50:26.010Z,18.80
2019-03-24T04:51:26.000Z,23.20
2019-03-24T04:52:25.996Z,17.30
2019-03-24T04:53:25.975Z,26.20
2019-03-24T04:54:25.974Z,17.80
2019-03-24T04:55:25.953Z,19.40
2019-03-24T04:56:25.950Z,19.50
2019-03-24T04:57:25.933Z,18.80
2019-03-24T04:58:25.936Z,18.00
2019-03-24T04:59:25.916Z,17.00
2019-03-24T05:00:25.915Z,17.80
2019-03-24T05:01:25.901Z,19.90
2019-03-24T05:02:25.890Z,19.20
2019-03-24T05:03:25.880Z,21.70
2019-03-24T05:04:25.863Z,18.70
2019-03-24T05:05:25.853Z,21.00
2019-03-24T05:06:25.851Z,21.30
2019-03-24T05:07:25.823Z,19.60
2019-03-24T05:08:25.815Z,18.60
2019-03-24T05:09:25.807Z,21.10
2019-03-24T05:10:25.794Z,22.00
2019-03-24T05:11:25.783Z,17.70
2019-03-24T05:12:25.767Z,19.40
2019-03-24T05:13:25.760Z,20.10
2019-03-24T05:14:25.757Z,20.50
2019-03-24T05:15:25.738Z,18.10
2019-03-24T05:16:25.733Z,21.20
2019-03-24T05:17:27.304Z,19.20
2019-03-24T05:18:25.705Z,22.40
2019-03-24T05:19:25.693Z,19.60
2019-03-24T05:20:25.682Z,23.50
2019-03-24T05:21:25.677Z,21.00
2019-03-24T05:22:25.667Z,18.70
2019-03-24T05:23:25.650Z,18.70
2019-03-24T05:24:25.638Z,22.10
2019-03-24T05:25:25.630Z,19.50
2019-03-24T05:26:25.620Z,22.70
2019-03-24T05:27:25.612Z,21.40
2019-03-24T05:28:25.613Z,27.50
2019-03-24T05:29:25.585Z,21.20
2019-03-24T05:30:25.572Z,18.50
2019-03-24T05:31:25.582Z,21.30
2019-03-24T05:32:25.558Z,23.10
2019-03-24T05:33:25.549Z,19.20
2019-03-24T05:34:25.540Z,14.20
2019-03-24T05:35:25.517Z,17.10
2019-03-24T05:36:25.508Z,19.60
2019-03-24T05:37:25.500Z,19.20
2019-03-24T05:38:25.494Z,18.30
2019-03-24T05:39:25.489Z,21.30
2019-03-24T05:40:25.474Z,21.50
2019-03-24T05:41:25.454Z,19.00
2019-03-24T05:42:25.505Z,17.40
2019-03-24T05:43:25.441Z,19.30
2019-03-24T05:44:25.444Z,18.80
2019-03-24T05:45:25.411Z,23.40
2019-03-24T05:46:25.401Z,25.10
2019-03-24T05:47:25.389Z,23.20
2019-03-24T05:48:25.381Z,21.30
2019-03-24T05:49:25.430Z,20.30
2019-03-24T05:50:25.355Z,23.00
2019-03-24T05:51:25.353Z,19.10
2019-03-24T05:52:27.576Z,20.20
2019-03-24T05:53:25.332Z,19.60
2019-03-24T05:54:25.321Z,18.90
2019-03-24T05:55:25.355Z,25.30
2019-03-24T05:56:25.308Z,18.70
2019-03-24T05:57:25.283Z,21.80
2019-03-24T05:58:25.271Z,23.40
2019-03-24T05:59:25.262Z,20.00
2019-03-24T06:00:25.258Z,23.20
2019-03-24T06:01:25.243Z,22.20
2019-03-24T06:02:25.226Z,18.30
2019-03-24T06:03:25.262Z,22.00
2019-03-24T06:04:25.209Z,19.10
2019-03-24T06:05:25.203Z,20.60
2019-03-24T06:06:25.190Z,23.00
2019-03-24T06:07:25.173Z,21.40
2019-03-24T06:08:25.164Z,23.00
2019-03-24T06:09:25.146Z,17.80
2019-03-24T06:10:25.176Z,21.30
2019-03-24T06:11:25.135Z,19.20
2019-03-24T06:12:25.186Z,23.60
2019-03-24T06:13:25.141Z,21.90
2019-03-24T06:14:25.110Z,22.50
2019-03-24T06:15:25.098Z,20.30
2019-03-24T06:16:25.086Z,21.40
2019-03-24T06:17:25.074Z,23.90
2019-03-24T06:18:25.048Z,17.70
2019-03-24T06:19:25.075Z,20.30
2019-03-24T06:20:25.030Z,19.50
2019-03-24T06:21:25.023Z,16.70
2019-03-24T06:22:25.006Z,20.00
2019-03-24T06:23:25.003Z,17.90
2019-03-24T06:24:24.997Z,15.60
2019-03-24T06:25:24.987Z,15.60
2019-03-24T06:26:24.971Z,15.70
2019-03-24T06:27:24.979Z,23.80
2019-03-24T06:28:24.957Z,16.70
2019-03-24T06:29:24.926Z,26.50
2019-03-24T06:30:24.927Z,19.00
2019-03-24T06:31:24.940Z,18.00
2019-03-24T06:32:24.899Z,19.80
2019-03-24T06:33:24.898Z,15.60
2019-03-24T06:34:24.881Z,19.40
2019-03-24T06:35:24.875Z,24.50
2019-03-24T06:36:24.862Z,22.30
2019-03-24T06:37:24.863Z,23.90
2019-03-24T06:38:24.842Z,18.30
2019-03-24T06:39:24.818Z,19.40
2019-03-24T06:40:24.822Z,18.50
2019-03-24T06:41:24.803Z,20.80
2019-03-24T06:42:24.796Z,21.20
2019-03-24T06:43:24.801Z,20.60
2019-03-24T06:44:24.769Z,18.10
2019-03-24T06:45:28.671Z,20.40
2019-03-24T06:46:24.754Z,20.80
2019-03-24T06:47:24.757Z,17.90
2019-03-24T06:48:24.729Z,18.90
2019-03-24T06:49:24.746Z,21.70
2019-03-24T06:50:24.716Z,15.80
2019-03-24T06:51:26.055Z,18.70
2019-03-24T06:52:24.705Z,20.90
2019-03-24T06:53:24.684Z,18.40
2019-03-24T06:54:24.690Z,18.60
2019-03-24T06:55:24.719Z,23.80
2019-03-24T06:56:24.652Z,16.60
2019-03-24T06:57:24.630Z,16.30
2019-03-24T06:58:24.635Z,14.80
2019-03-24T06:59:24.623Z,18.30
2019-03-24T07:00:24.633Z,26.10
2019-03-24T07:01:24.585Z,17.70
2019-03-24T07:02:24.575Z,19.30
2019-03-24T07:03:24.565Z,21.50
2019-03-24T07:04:24.555Z,19.70
2019-03-24T07:05:24.559Z,20.90
2019-03-24T07:06:24.525Z,21.10
2019-03-24T07:07:24.572Z,17.90
2019-03-24T07:08:24.509Z,16.50
2019-03-24T07:09:24.523Z,18.40
2019-03-24T07:10:24.505Z,16.50
2019-03-24T07:11:24.512Z,21.60
2019-03-24T07:12:24.781Z,20.50
2019-03-24T07:13:24.450Z,16.40
2019-03-24T07:14:24.626Z,18.40
2019-03-24T07:15:24.937Z,18.70
2019-03-24T07:16:24.544Z,17.30
2019-03-24T07:17:24.525Z,18.20
2019-03-24T07:18:24.506Z,18.60
2019-03-24T07:19:24.483Z,16.70
2019-03-24T07:20:24.445Z,16.40
2019-03-24T07:21:24.381Z,19.60
2019-03-24T07:22:24.415Z,18.90
2019-03-24T07:23:24.431Z,18.20
2019-03-24T07:24:24.333Z,16.20
2019-03-24T07:25:24.325Z,17.00
2019-03-24T07:26:24.308Z,21.10
2019-03-24T07:27:24.315Z,16.60
2019-03-24T07:28:25.024Z,21.10
2019-03-24T07:29:24.278Z,19.00
2019-03-24T07:30:24.259Z,20.50
2019-03-24T07:31:24.254Z,21.30
2019-03-24T07:32:24.246Z,16.10
2019-03-24T07:33:24.273Z,16.60
2019-03-24T07:34:24.310Z,17.30
2019-03-24T07:35:24.202Z,19.00
2019-03-24T07:36:24.934Z,17.00
2019-03-24T07:37:24.212Z,21.30
2019-03-24T07:38:24.178Z,17.00
2019-03-24T07:39:24.168Z,20.50
2019-03-24T07:40:24.150Z,18.30
2019-03-24T07:41:24.184Z,16.20
2019-03-24T07:42:24.124Z,17.80
2019-03-24T07:43:24.132Z,22.70
2019-03-24T07:44:24.110Z,17.40
2019-03-24T07:45:24.140Z,19.20
2019-03-24T07:46:24.085Z,20.00
2019-03-24T07:47:24.070Z,16.70
2019-03-24T07:48:24.064Z,20.40
2019-03-24T07:49:24.068Z,22.10
2019-03-24T07:50:24.048Z,14.40
2019-03-24T07:51:24.059Z,20.30
2019-03-24T07:52:24.028Z,17.40
2019-03-24T07:53:24.015Z,15.00
2019-03-24T07:54:24.029Z,16.20
2019-03-24T07:55:23.989Z,17.20
2019-03-24T07:56:23.983Z,15.50
2019-03-24T07:57:23.965Z,16.70
2019-03-24T07:58:23.962Z,18.90
2019-03-24T07:59:23.945Z,16.40
2019-03-24T08:00:23.933Z,18.70
2019-03-24T08:01:23.936Z,16.20
2019-03-24T08:02:23.938Z,16.60
2019-03-24T08:03:23.899Z,17.80
2019-03-24T08:04:23.885Z,17.40
2019-03-24T08:05:23.910Z,18.50
2019-03-24T08:06:23.874Z,20.80
2019-03-24T08:07:23.868Z,20.20
2019-03-24T08:08:23.851Z,15.00
2019-03-24T08:09:23.962Z,16.60
2019-03-24T08:10:23.830Z,19.00
2019-03-24T08:11:23.814Z,18.00
2019-03-24T08:12:23.806Z,18.60
2019-03-24T08:13:23.797Z,19.80
2019-03-24T08:14:23.810Z,15.20
2019-03-24T08:15:23.775Z,18.10
2019-03-24T08:16:23.808Z,16.80
2019-03-24T08:17:23.754Z,16.30
2019-03-24T08:18:29.963Z,16.20
2019-03-24T08:19:24.731Z,21.50
2019-03-24T08:20:23.716Z,14.60
2019-03-24T08:21:23.704Z,19.00
2019-03-24T08:22:23.695Z,15.40
2019-03-24T08:23:23.712Z,13.70
2019-03-24T08:24:23.681Z,18.00
2019-03-24T08:25:23.673Z,20.00
2019-03-24T08:26:23.650Z,13.80
2019-03-24T08:27:23.643Z,15.00
2019-03-24T08:28:24.184Z,14.10
2019-03-24T08:29:23.648Z,17.50
2019-03-24T08:30:23.621Z,25.50
2019-03-24T08:31:23.637Z,18.70
2019-03-24T08:32:23.579Z,18.90
2019-03-24T08:33:23.572Z,18.90
2019-03-24T08:34:23.568Z,19.90
2019-03-24T08:35:23.547Z,17.70
2019-03-24T08:36:23.543Z,20.50
2019-03-24T08:37:23.535Z,17.20
2019-03-24T08:38:23.520Z,16.10
2019-03-24T08:39:23.514Z,16.30
2019-03-24T08:40:23.503Z,16.00
2019-03-24T08:41:23.509Z,19.90
2019-03-24T08:42:23.518Z,16.70
2019-03-24T08:43:23.465Z,19.50
2019-03-24T08:44:23.459Z,22.00
2019-03-24T08:45:23.445Z,20.50
2019-03-24T08:46:23.434Z,19.60
2019-03-24T08:47:23.418Z,18.10
2019-03-24T08:48:23.428Z,15.40
2019-03-24T08:49:23.391Z,21.50
2019-03-24T08:50:23.400Z,17.80
2019-03-24T08:51:23.413Z,20.50
2019-03-24T08:52:23.400Z,14.60
2019-03-24T08:53:23.370Z,15.50
2019-03-24T08:54:23.380Z,17.20
2019-03-24T08:55:23.333Z,17.80
2019-03-24T08:56:23.434Z,17.30
2019-03-24T08:57:23.390Z,16.90
2019-03-24T08:58:23.308Z,19.80
2019-03-24T08:59:23.302Z,14.50
2019-03-24T09:00:30.639Z,22.50
2019-03-24T09:01:24.262Z,14.90
2019-03-24T09:02:23.260Z,14.40
2019-03-24T09:03:23.254Z,17.20
2019-03-24T09:04:23.236Z,19.50
2019-03-24T09:05:23.228Z,16.70
2019-03-24T09:06:23.203Z,18.20
2019-03-24T09:07:23.205Z,16.80
2019-03-24T09:08:23.184Z,12.90
2019-03-24T09:09:23.185Z,17.50
2019-03-24T09:10:23.166Z,15.30
2019-03-24T09:11:30.821Z,18.50
2019-03-24T09:12:24.164Z,19.10
2019-03-24T09:13:23.131Z,19.80
2019-03-24T09:14:23.114Z,15.60
2019-03-24T09:15:23.115Z,15.00
2019-03-24T09:16:23.123Z,18.30
2019-03-24T09:17:23.164Z,16.10
2019-03-24T09:18:23.079Z,18.30
2019-03-24T09:19:23.072Z,15.40
2019-03-24T09:20:23.064Z,16.50
2019-03-24T09:21:23.053Z,15.50
2019-03-24T09:22:23.054Z,17.00
2019-03-24T09:23:23.025Z,12.80
2019-03-24T09:24:23.010Z,18.60
2019-03-24T09:25:23.071Z,18.10
2019-03-24T09:26:23.000Z,18.00
2019-03-24T09:27:22.981Z,12.80
2019-03-24T09:28:22.979Z,17.50
2019-03-24T09:29:22.967Z,16.10
2019-03-24T09:30:22.954Z,14.10
2019-03-24T09:31:22.953Z,14.30
2019-03-24T09:32:22.934Z,18.30
2019-03-24T09:33:22.945Z,19.60
2019-03-24T09:34:22.899Z,14.60
2019-03-24T09:35:22.903Z,12.70
2019-03-24T09:36:22.886Z,20.40
2019-03-24T09:37:22.874Z,16.00
2019-03-24T09:38:22.859Z,13.80
2019-03-24T09:39:22.854Z,14.80
2019-03-24T09:40:22.836Z,14.10
2019-03-24T09:41:22.885Z,16.80
2019-03-24T09:42:22.824Z,18.80
2019-03-24T09:43:22.824Z,15.80
2019-03-24T09:44:22.803Z,19.10
2019-03-24T09:45:22.792Z,11.50
2019-03-24T09:46:22.778Z,14.90
2019-03-24T09:47:22.758Z,16.90
2019-03-24T09:48:22.762Z,17.60
2019-03-24T09:49:22.740Z,15.50
2019-03-24T09:50:22.740Z,13.10
2019-03-24T09:51:22.737Z,15.50
2019-03-24T09:52:22.733Z,12.60
2019-03-24T09:53:22.710Z,16.50
2019-03-24T09:54:22.682Z,17.50
2019-03-24T09:55:22.700Z,12.20
2019-03-24T09:56:22.675Z,14.00
2019-03-24T09:57:22.680Z,16.50
2019-03-24T09:58:22.655Z,14.30
2019-03-24T09:59:22.634Z,14.60
2019-03-24T10:00:23.602Z,14.60
2019-03-24T10:01:22.641Z,13.30
2019-03-24T10:02:22.599Z,13.70
2019-03-24T10:03:23.572Z,18.00
2019-03-24T10:04:22.572Z,14.20
2019-03-24T10:05:22.568Z,11.00
2019-03-24T10:06:22.551Z,16.80
2019-03-24T10:07:22.555Z,14.90
2019-03-24T10:08:22.533Z,14.50
2019-03-24T10:09:22.711Z,11.20
2019-03-24T10:10:22.504Z,14.40
2019-03-24T10:11:22.508Z,12.40
2019-03-24T10:12:22.502Z,15.00
2019-03-24T10:13:22.515Z,15.20
2019-03-24T10:14:22.491Z,16.10
2019-03-24T10:15:22.556Z,17.10
2019-03-24T10:16:22.560Z,15.90
2019-03-24T10:17:23.028Z,16.20
2019-03-24T10:18:22.431Z,14.90
2019-03-24T10:19:23.049Z,13.10
2019-03-24T10:20:22.409Z,13.10
2019-03-24T10:21:22.457Z,19.40
2019-03-24T10:22:22.422Z,14.30
2019-03-24T10:23:22.374Z,13.00
2019-03-24T10:24:22.363Z,14.50
2019-03-24T10:25:22.400Z,13.60
2019-03-24T10:26:23.092Z,11.40
2019-03-24T10:27:22.347Z,11.60
2019-03-24T10:28:22.320Z,12.80
2019-03-24T10:29:22.318Z,9.50
2019-03-24T10:30:22.326Z,15.70
2019-03-24T10:31:22.382Z,14.00
2019-03-24T10:32:22.334Z,13.60
2019-03-24T10:33:22.282Z,12.40
2019-03-24T10:34:22.258Z,11.90
2019-03-24T10:35:22.257Z,11.30
2019-03-24T10:36:22.242Z,12.40
2019-03-24T10:37:22.237Z,11.80
2019-03-24T10:38:22.200Z,10.20
2019-03-24T10:39:23.084Z,12.30
2019-03-24T10:40:28.575Z,10.00
2019-03-24T10:41:24.040Z,11.30
2019-03-24T10:42:22.165Z,13.00
2019-03-24T10:43:23.044Z,8.50
2019-03-24T10:44:22.136Z,12.00
2019-03-24T10:45:22.124Z,12.00
2019-03-24T10:46:22.131Z,10.30
2019-03-24T10:47:22.112Z,13.00
2019-03-24T10:48:22.092Z,13.40
2019-03-24T10:49:25.136Z,12.00
2019-03-24T10:50:22.122Z,10.30
2019-03-24T10:51:22.057Z,11.90
2019-03-24T10:52:22.057Z,10.40
2019-03-24T10:53:22.034Z,7.90
2019-03-24T10:54:22.053Z,9.80
2019-03-24T10:55:22.578Z,10.50
2019-03-24T10:56:22.007Z,11.60
2019-03-24T10:57:22.011Z,11.40
2019-03-24T10:58:22.004Z,11.80
2019-03-24T10:59:21.969Z,11.10
2019-03-24T11:00:21.965Z,10.30
2019-03-24T11:01:22.008Z,13.00
2019-03-24T11:02:21.937Z,11.50
2019-03-24T11:03:21.935Z,13.20
2019-03-24T11:04:21.921Z,13.50
2019-03-24T11:05:21.911Z,10.90
2019-03-24T11:06:21.889Z,11.00
2019-03-24T11:07:21.876Z,9.20
2019-03-24T11:08:21.867Z,11.80
2019-03-24T11:09:21.861Z,12.80
2019-03-24T11:10:21.847Z,11.70
2019-03-24T11:11:21.829Z,10.60
2019-03-24T11:12:21.825Z,13.00
2019-03-24T11:13:21.813Z,10.60
2019-03-24T11:14:21.809Z,11.40
2019-03-24T11:15:21.795Z,9.40
2019-03-24T11:16:21.792Z,9.90
2019-03-24T11:17:21.774Z,10.10
2019-03-24T11:18:21.761Z,10.70
2019-03-24T11:19:21.748Z,13.60
2019-03-24T11:20:21.746Z,12.40
2019-03-24T11:21:21.722Z,10.60
2019-03-24T11:22:21.719Z,9.70
2019-03-24T11:23:21.708Z,10.40
2019-03-24T11:24:21.689Z,13.10
2019-03-24T11:25:21.680Z,11.50
2019-03-24T11:26:21.674Z,13.30
2019-03-24T11:27:21.681Z,15.30
2019-03-24T11:28:21.670Z,10.10
2019-03-24T11:29:21.632Z,12.90
2019-03-24T11:30:21.724Z,10.60
2019-03-24T11:31:21.620Z,11.90
2019-03-24T11:32:21.605Z,12.10
2019-03-24T11:33:21.619Z,9.10
2019-03-24T11:34:21.573Z,10.00
2019-03-24T11:35:21.573Z,9.80
2019-03-24T11:36:21.562Z,11.10
2019-03-24T11:37:21.550Z,10.20
2019-03-24T11:38:21.591Z,10.80
2019-03-24T11:39:21.537Z,9.80
2019-03-24T11:40:21.510Z,13.00
2019-03-24T11:41:21.504Z,11.70
2019-03-24T11:42:21.495Z,12.30
2019-03-24T11:43:21.555Z,9.00
2019-03-24T11:44:21.467Z,10.40
2019-03-24T11:45:21.462Z,10.80
2019-03-24T11:46:21.487Z,9.90
2019-03-24T11:47:26.504Z,9.60
2019-03-24T11:48:21.446Z,11.20
2019-03-24T11:49:21.405Z,8.70
2019-03-24T11:50:21.412Z,11.20
2019-03-24T11:51:21.387Z,10.60
2019-03-24T11:52:21.387Z,12.40
2019-03-24T11:53:21.366Z,8.80
2019-03-24T11:54:21.370Z,12.40
2019-03-24T11:55:21.348Z,9.00
2019-03-24T11:56:21.340Z,12.20
2019-03-24T11:57:21.344Z,12.80
2019-03-24T11:58:21.319Z,11.20
2019-03-24T11:59:21.305Z,11.40
2019-03-24T12:00:21.306Z,10.40
2019-03-24T12:01:21.284Z,8.50
2019-03-24T12:02:21.303Z,8.90
2019-03-24T12:03:21.256Z,9.90
2019-03-24T12:04:21.256Z,10.20
2019-03-24T12:05:21.242Z,8.50
2019-03-24T12:06:21.263Z,9.20
2019-03-24T12:07:21.282Z,10.10
2019-03-24T12:08:21.207Z,12.20
2019-03-24T12:09:21.201Z,10.30
2019-03-24T12:10:21.179Z,8.60
2019-03-24T12:11:21.177Z,8.80
2019-03-24T12:12:21.163Z,13.30
2019-03-24T12:13:21.172Z,11.00
2019-03-24T12:14:21.166Z,9.00
2019-03-24T12:15:21.129Z,11.10
2019-03-24T12:16:21.125Z,10.30
2019-03-24T12:17:21.114Z,12.00
2019-03-24T12:18:21.096Z,10.80
2019-03-24T12:19:21.098Z,8.60
2019-03-24T12:20:21.070Z,11.10
2019-03-24T12:21:21.120Z,10.90
2019-03-24T12:22:21.056Z,8.70
2019-03-24T12:23:21.131Z,12.10
2019-03-24T12:24:21.037Z,8.20
2019-03-24T12:25:21.021Z,11.70
2019-03-24T12:26:21.022Z,10.50
2019-03-24T12:27:20.996Z,11.20
2019-03-24T12:28:20.984Z,10.90
2019-03-24T12:29:20.988Z,9.70
2019-03-24T12:30:20.959Z,11.10
2019-03-24T12:31:21.006Z,11.20
2019-03-24T12:32:20.937Z,10.10
2019-03-24T12:33:20.935Z,8.20
2019-03-24T12:34:20.931Z,11.70
2019-03-24T12:35:20.934Z,9.70
2019-03-24T12:36:20.894Z,11.50
2019-03-24T12:37:21.053Z,11.30
2019-03-24T12:38:20.875Z,8.70
2019-03-24T12:39:20.867Z,11.80
2019-03-24T12:40:20.850Z,11.80
2019-03-24T12:41:20.852Z,9.50
2019-03-24T12:42:20.830Z,9.80
2019-03-24T12:43:20.825Z,9.30
2019-03-24T12:44:20.816Z,7.10
2019-03-24T12:45:20.800Z,8.90
2019-03-24T12:46:20.791Z,11.10
2019-03-24T12:47:20.766Z,8.10
2019-03-24T12:48:20.879Z,10.70
2019-03-24T12:49:20.756Z,8.00
2019-03-24T12:50:31.048Z,11.00
2019-03-24T12:51:21.761Z,12.80
2019-03-24T12:52:20.729Z,10.70
2019-03-24T12:53:20.720Z,7.50